Time;durP1;ratioP1;P1;durP2;ratioP2;P2;SDS_P1;SDS_P2;PMS_P1;PMS_P2;Temp;Humidity;BMP_temperature;BMP_pressure;BME280_temperature;BME280_humidity;BME280_pressure;Samples;Min_cycle;Max_cycle;Signal;HPM_P1;HPM_P2
2023/06/26 00:00:57;;;;;;;2.65;2.20;;;;;;;27.08;47.33;98704.81;2059874;28;20064;-48
2023/06/26 00:01:59;;;;;;;4.13;1.98;;;;;;;27.07;47.46;98694.16;2059218;28;20581;-52
2023/06/26 00:03:01;;;;;;;2.40;1.80;;;;;;;27.08;47.52;98696.63;2059837;28;20050;-50
2023/06/26 00:04:03;;;;;;;3.58;1.75;;;;;;;27.09;47.16;98695.53;2061849;28;20148;-50
2023/06/26 00:05:04;;;;;;;2.28;1.88;;;;;;;27.12;47.09;98703.19;2060502;28;20065;-52
2023/06/26 00:06:06;;;;;;;3.88;1.80;;;;;;;27.10;47.07;98701.81;2062576;28;20046;-49
2023/06/26 00:07:07;;;;;;;2.33;1.55;;;;;;;27.08;47.56;98698.50;2060512;28;20088;-54
2023/06/26 00:08:09;;;;;;;4.57;2.22;;;;;;;27.08;47.14;98693.06;2059929;28;20447;-52
2023/06/26 00:09:10;;;;;;;2.88;1.75;;;;;;;27.05;47.74;98699.03;2063077;28;20518;-49
2023/06/26 00:10:11;;;;;;;3.35;2.03;;;;;;;27.08;46.88;98695.78;2063226;28;20056;-50
2023/06/26 00:11:12;;;;;;;3.13;2.10;;;;;;;27.07;47.36;98686.81;2062359;28;20054;-51
2023/06/26 00:12:14;;;;;;;2.10;1.90;;;;;;;27.07;47.58;98696.88;2061865;28;20050;-50
2023/06/26 00:13:15;;;;;;;2.13;1.73;;;;;;;27.06;47.72;98696.06;2060106;28;20129;-49
2023/06/26 00:14:18;;;;;;;3.00;2.35;;;;;;;27.10;47.50;98696.34;2064832;28;20057;-48
2023/06/26 00:15:20;;;;;;;3.88;2.42;;;;;;;27.10;47.74;98701.81;2061249;28;20354;-50
2023/06/26 00:16:21;;;;;;;2.90;1.98;;;;;;;27.08;47.63;98702.06;2051680;28;20142;-54
2023/06/26 00:17:22;;;;;;;2.75;1.83;;;;;;;27.09;47.89;98702.91;2059649;28;20046;-51
2023/06/26 00:18:25;;;;;;;2.97;1.80;;;;;;;27.07;47.73;98694.97;2063551;28;20057;-47
2023/06/26 00:19:26;;;;;;;2.42;2.08;;;;;;;27.08;47.48;98693.91;2060448;28;20251;-50
2023/06/26 00:20:28;;;;;;;2.13;1.92;;;;;;;27.09;47.71;98694.72;2059006;28;21305;-50
2023/06/26 00:21:29;;;;;;;2.97;1.73;;;;;;;27.11;47.93;98687.13;2061760;28;20081;-50
2023/06/26 00:22:31;;;;;;;2.55;1.73;;;;;;;27.09;47.47;98692.00;2060069;28;20061;-52
2023/06/26 00:23:32;;;;;;;3.50;1.40;;;;;;;27.09;47.87;98687.38;2059085;28;20069;-46
2023/06/26 00:24:34;;;;;;;2.22;1.80;;;;;;;27.10;47.56;98688.19;2060480;28;20045;-49
2023/06/26 00:25:35;;;;;;;3.47;1.88;;;;;;;27.07;47.48;98691.44;2060535;28;20058;-52
2023/06/26 00:26:37;;;;;;;3.25;1.98;;;;;;;27.09;47.35;98695.53;2060985;28;20126;-51
2023/06/26 00:27:38;;;;;;;2.25;2.08;;;;;;;27.09;47.65;98694.72;2064805;28;20053;-54
2023/06/26 00:28:40;;;;;;;3.00;1.98;;;;;;;27.09;47.67;98686.56;2061315;28;20049;-52
2023/06/26 00:29:41;;;;;;;2.22;2.03;;;;;;;27.05;47.77;98699.03;2061254;28;20054;-46
2023/06/26 00:30:42;;;;;;;2.88;1.65;;;;;;;27.10;47.38;98688.19;2064214;28;20078;-49
2023/06/26 00:31:44;;;;;;;3.47;2.08;;;;;;;27.09;47.35;98694.72;2045324;28;20046;-54
2023/06/26 00:32:45;;;;;;;2.58;1.80;;;;;;;27.08;47.58;98693.06;2059590;28;20107;-53
2023/06/26 00:33:48;;;;;;;5.38;1.80;;;;;;;27.10;47.83;98696.34;2057541;28;20061;-51
2023/06/26 00:34:49;;;;;;;2.03;1.60;;;;;;;27.09;47.42;98694.72;2060620;28;20050;-49
2023/06/26 00:35:50;;;;;;;3.42;1.85;;;;;;;27.09;47.24;98698.25;2061442;28;20073;-50
2023/06/26 00:36:52;;;;;;;3.15;2.42;;;;;;;27.08;47.70;98695.78;2059228;28;20043;-54
2023/06/26 00:37:53;;;;;;;3.28;2.10;;;;;;;27.07;47.81;98697.69;2059963;28;20046;-49
2023/06/26 00:38:55;;;;;;;3.67;1.90;;;;;;;27.08;47.38;98693.06;2062171;28;20045;-52
2023/06/26 00:39:56;;;;;;;1.92;1.70;;;;;;;27.08;47.49;98695.78;2059947;28;20073;-51
2023/06/26 00:40:57;;;;;;;3.08;1.73;;;;;;;27.07;47.12;98696.88;2060288;28;20055;-49
2023/06/26 00:41:58;;;;;;;3.35;1.75;;;;;;;27.08;47.56;98687.63;2062043;28;20058;-48
2023/06/26 00:43:00;;;;;;;3.17;1.63;;;;;;;27.09;47.55;98697.44;2056606;28;20053;-46
2023/06/26 00:44:01;;;;;;;2.38;1.85;;;;;;;27.07;47.88;98696.88;2062583;28;20050;-47
2023/06/26 00:45:03;;;;;;;2.42;1.48;;;;;;;27.09;47.48;98697.44;2057663;28;20050;-52
2023/06/26 00:46:04;;;;;;;3.13;2.17;;;;;;;27.09;47.50;98695.53;2059213;28;20080;-51
2023/06/26 00:47:07;;;;;;;2.83;1.67;;;;;;;27.09;47.61;98698.25;2061632;28;20439;-54
2023/06/26 00:48:11;;;;;;;2.40;1.95;;;;;;;27.10;47.55;98704.53;2060281;28;20053;-51
2023/06/26 00:49:15;;;;;;;3.25;2.13;;;;;;;27.10;47.69;98699.09;2062340;28;20096;-51
2023/06/26 00:50:17;;;;;;;4.13;1.77;;;;;;;27.11;47.90;98698.03;2053111;28;20061;-53
2023/06/26 00:51:19;;;;;;;2.25;1.85;;;;;;;27.10;47.78;98699.91;2061892;28;20053;-53
2023/06/26 00:52:20;;;;;;;3.28;1.98;;;;;;;27.11;47.51;98703.47;2059152;28;20429;-51
2023/06/26 00:53:22;;;;;;;3.35;1.67;;;;;;;27.10;47.59;98699.91;2064282;28;20052;-48
2023/06/26 00:54:23;;;;;;;2.63;1.80;;;;;;;27.11;47.65;98698.84;2063036;28;20157;-50
2023/06/26 00:55:25;;;;;;;4.30;2.03;;;;;;;27.09;47.68;98700.16;2062451;28;20057;-51
2023/06/26 00:56:27;;;;;;;1.70;1.60;;;;;;;27.10;47.56;98701.81;2055269;28;20119;-54
2023/06/26 00:57:30;;;;;;;2.97;1.95;;;;;;;27.18;47.09;98698.66;2060956;28;20649;-51
2023/06/26 00:58:31;;;;;;;2.92;1.80;;;;;;;27.17;47.13;98697.81;2058220;28;20049;-49
2023/06/26 00:59:33;;;;;;;2.67;1.80;;;;;;;27.20;47.05;98701.13;2058369;28;20052;-47
2023/06/26 01:00:34;;;;;;;2.85;1.33;;;;;;;27.18;47.34;98696.75;2060575;28;20656;-52
2023/06/26 01:01:36;;;;;;;3.97;2.00;;;;;;;27.16;47.45;98698.06;2062809;28;20056;-50
2023/06/26 01:02:38;;;;;;;2.78;1.75;;;;;;;27.12;47.24;98700.47;2056002;28;20061;-50
2023/06/26 01:03:41;;;;;;;2.47;1.77;;;;;;;27.12;47.60;98699.66;2063431;28;20049;-47
2023/06/26 01:04:46;;;;;;;5.10;1.80;;;;;;;27.11;47.39;98703.47;2061106;28;20102;-47
2023/06/26 01:05:49;;;;;;;1.92;1.30;;;;;;;27.10;47.79;98702.63;2060054;28;20054;-50
2023/06/26 01:06:51;;;;;;;3.08;1.80;;;;;;;27.12;47.39;98699.66;2059125;28;20073;-48
2023/06/26 01:07:54;;;;;;;4.00;1.98;;;;;;;27.11;47.36;98698.03;2052971;28;20050;-47
2023/06/26 01:08:56;;;;;;;2.92;1.80;;;;;;;27.10;47.52;98704.53;2061803;28;21006;-47
2023/06/26 01:09:57;;;;;;;3.67;2.13;;;;;;;27.09;47.23;98694.72;2064621;28;20491;-48
2023/06/26 01:10:59;;;;;;;5.30;1.95;;;;;;;27.06;47.40;98700.69;2062931;28;20057;-47
2023/06/26 01:12:01;;;;;;;1.58;1.48;;;;;;;26.94;47.64;98698.94;2061626;28;20077;-48
2023/06/26 01:13:02;;;;;;;4.68;2.90;;;;;;;26.88;47.70;98694.50;2061860;28;20053;-51
2023/06/26 01:14:04;;;;;;;1.83;1.50;;;;;;;26.84;47.71;98698.84;2063297;28;20133;-46
2023/06/26 01:15:06;;;;;;;6.93;1.90;;;;;;;26.81;47.51;98699.34;2061896;28;20153;-48
2023/06/26 01:16:08;;;;;;;2.15;1.63;;;;;;;26.80;47.60;98689.56;2061728;28;20821;-49
2023/06/26 01:17:13;;;;;;;2.35;1.67;;;;;;;26.79;48.05;98693.34;2058820;28;20041;-49
2023/06/26 01:18:16;;;;;;;3.22;1.88;;;;;;;26.78;47.97;98686.25;2051694;28;20050;-48
2023/06/26 01:19:24;;;;;;;5.45;2.05;;;;;;;26.82;47.51;98684.66;2064057;28;20176;-47
2023/06/26 01:20:28;;;;;;;4.07;1.92;;;;;;;26.86;47.65;98685.81;2058806;28;20160;-49
2023/06/26 01:21:32;;;;;;;3.47;2.10;;;;;;;26.86;47.87;98688.53;2061384;28;20127;-47
2023/06/26 01:22:44;;;;;;;2.35;1.95;;;;;;;26.92;47.61;98681.22;2060835;28;20797;-48
2023/06/26 01:24:04;;;;;;;1.60;1.30;;;;;;;26.83;47.91;98686.31;2054469;28;20096;-49
2023/06/26 01:25:17;;;;;;;2.22;1.95;;;;;;;26.83;47.82;98694.47;2058921;28;20046;-48
2023/06/26 01:26:21;;;;;;;3.78;1.80;;;;;;;26.88;47.79;98689.06;2059122;28;20737;-47
2023/06/26 01:27:24;;;;;;;2.28;1.92;;;;;;;26.86;47.57;98691.25;2060635;28;20057;-47
2023/06/26 01:28:26;;;;;;;9.68;2.08;;;;;;;26.85;47.91;98684.13;2061826;28;20649;-48
2023/06/26 01:29:31;;;;;;;2.30;1.75;;;;;;;26.86;47.78;98685.81;2062418;28;20050;-47
2023/06/26 01:30:33;;;;;;;7.07;2.50;;;;;;;26.87;47.83;98690.16;2062391;28;20050;-49
2023/06/26 01:31:35;;;;;;;4.00;1.80;;;;;;;26.89;47.88;98682.56;2060516;28;20042;-48
2023/06/26 01:32:37;;;;;;;2.47;1.80;;;;;;;26.88;47.95;98689.06;2059559;28;20050;-47
2023/06/26 01:33:39;;;;;;;2.30;1.73;;;;;;;26.88;48.07;98682.81;2062062;28;20081;-47
2023/06/26 01:34:41;;;;;;;4.43;2.75;;;;;;;26.89;47.89;98689.91;2060595;28;20675;-49
2023/06/26 01:35:43;;;;;;;9.45;2.53;;;;;;;26.90;47.80;98680.66;2061706;28;20080;-49
2023/06/26 01:36:45;;;;;;;1.98;1.52;;;;;;;26.90;47.79;98681.47;2063406;28;20056;-46
2023/06/26 01:37:47;;;;;;;2.17;1.67;;;;;;;26.91;48.09;98682.28;2059785;28;20038;-48
2023/06/26 01:38:47;;;;;;;2.17;1.70;;;;;;;26.92;47.93;98682.03;2060276;28;20132;-49
2023/06/26 01:39:49;;;;;;;1.33;1.23;;;;;;;26.95;48.22;98678.00;2060552;28;20408;-50
2023/06/26 01:40:50;;;;;;;4.80;1.88;;;;;;;26.96;48.33;98687.78;2054602;28;20049;-47
2023/06/26 01:41:54;;;;;;;3.25;1.48;;;;;;;26.96;48.25;98685.88;2062629;28;20054;-47
2023/06/26 01:42:57;;;;;;;2.50;1.70;;;;;;;26.95;48.50;98686.97;2062157;28;20107;-50
2023/06/26 01:44:12;;;;;;;3.65;1.63;;;;;;;26.95;48.18;98684.25;2065432;28;20046;-48
2023/06/26 01:45:27;;;;;;;3.45;1.65;;;;;;;26.94;47.84;98682.63;2061690;28;20053;-47
2023/06/26 01:46:41;;;;;;;3.17;2.63;;;;;;;26.91;48.12;98674.97;2061130;28;20076;-47
2023/06/26 01:47:49;;;;;;;4.18;2.15;;;;;;;26.88;47.60;98680.91;2055777;28;20057;-48
2023/06/26 01:49:03;;;;;;;3.53;2.20;;;;;;;26.90;47.80;98680.66;2063094;28;20084;-47
2023/06/26 01:50:10;;;;;;;4.03;2.35;;;;;;;26.90;47.71;98678.75;2062848;28;20387;-47
2023/06/26 01:51:14;;;;;;;4.07;1.52;;;;;;;26.90;47.80;98678.75;2057615;28;20054;-49
2023/06/26 01:52:22;;;;;;;4.00;2.22;;;;;;;26.92;47.98;98676.59;2061282;28;20158;-49
2023/06/26 01:53:27;;;;;;;3.78;2.03;;;;;;;26.94;48.23;98679.91;2058884;28;20065;-48
2023/06/26 01:54:34;;;;;;;2.80;1.70;;;;;;;26.96;48.46;98674.19;2060485;28;20058;-47
2023/06/26 01:55:43;;;;;;;2.30;1.48;;;;;;;26.96;48.58;98671.47;2061271;28;20075;-47
2023/06/26 01:56:46;;;;;;;3.40;2.03;;;;;;;26.95;48.11;98680.72;2059553;28;20061;-47
2023/06/26 01:57:49;;;;;;;2.63;1.80;;;;;;;26.96;48.25;98671.47;2061897;28;20062;-47
2023/06/26 01:58:54;;;;;;;2.47;1.73;;;;;;;26.96;48.35;98674.19;2053844;28;20050;-47
2023/06/26 01:59:58;;;;;;;2.75;1.77;;;;;;;26.99;48.12;98678.28;2059624;28;21128;-46
2023/06/26 02:01:00;;;;;;;1.55;1.45;;;;;;;26.94;47.91;98671.72;2063980;28;20050;-47
2023/06/26 02:02:02;;;;;;;2.20;1.75;;;;;;;26.96;48.07;98675.00;2060851;28;20092;-48
2023/06/26 02:03:04;;;;;;;4.28;1.65;;;;;;;26.94;48.06;98679.91;2062469;28;21218;-49
2023/06/26 02:04:06;;;;;;;2.13;1.63;;;;;;;26.98;47.97;98679.38;2063108;28;20045;-49
2023/06/26 02:05:07;;;;;;;2.83;1.45;;;;;;;26.98;47.89;98672.03;2061559;28;20848;-48
2023/06/26 02:06:09;;;;;;;2.63;1.77;;;;;;;27.00;47.69;98685.41;2059807;28;20107;-47
2023/06/26 02:07:10;;;;;;;2.47;2.05;;;;;;;26.96;47.54;98680.44;2061769;28;20042;-47
2023/06/26 02:08:14;;;;;;;3.90;1.50;;;;;;;27.00;47.84;98682.66;2060810;28;21418;-47
2023/06/26 02:09:15;;;;;;;2.97;2.10;;;;;;;27.01;47.63;98682.41;2058138;28;20484;-47
2023/06/26 02:10:17;;;;;;;4.75;1.95;;;;;;;26.96;47.61;98680.44;2060715;28;20144;-51
2023/06/26 02:11:18;;;;;;;3.42;2.40;;;;;;;27.02;47.44;98683.22;2059288;28;20792;-47
2023/06/26 02:12:20;;;;;;;2.53;1.75;;;;;;;27.00;47.69;98686.22;2063121;28;20137;-47
2023/06/26 02:13:22;;;;;;;2.88;2.00;;;;;;;27.03;47.44;98684.88;2062589;28;20077;-50
2023/06/26 02:14:24;;;;;;;3.15;1.60;;;;;;;27.02;47.44;98683.22;2058802;28;20072;-48
2023/06/26 02:15:25;;;;;;;1.90;1.60;;;;;;;26.98;47.47;98679.38;2062239;28;20061;-48
2023/06/26 02:16:26;;;;;;;1.95;1.60;;;;;;;27.03;47.36;98687.59;2053852;28;20056;-47
2023/06/26 02:17:27;;;;;;;2.72;1.70;;;;;;;27.01;47.62;98682.41;2057121;28;20050;-49
2023/06/26 02:18:29;;;;;;;3.95;1.70;;;;;;;26.99;47.71;98686.44;2057250;28;20721;-47
2023/06/26 02:19:30;;;;;;;1.83;1.67;;;;;;;26.98;47.86;98676.66;2059377;28;20885;-49
2023/06/26 02:20:33;;;;;;;3.45;1.75;;;;;;;26.99;47.72;98681.00;2060563;28;20050;-48
2023/06/26 02:21:35;;;;;;;4.40;1.83;;;;;;;27.03;47.37;98688.41;2060447;28;20440;-48
2023/06/26 02:22:37;;;;;;;2.70;1.73;;;;;;;26.99;47.37;98678.28;2058927;28;20047;-49
2023/06/26 02:23:38;;;;;;;1.88;1.50;;;;;;;27.00;47.79;98679.94;2061714;28;20050;-49
2023/06/26 02:24:40;;;;;;;5.60;2.50;;;;;;;26.99;47.20;98686.44;2057912;28;20049;-48
2023/06/26 02:25:41;;;;;;;2.30;1.98;;;;;;;26.98;47.42;98690.25;2061669;28;20053;-49
2023/06/26 02:26:42;;;;;;;1.88;1.67;;;;;;;26.99;47.09;98686.44;2061797;28;20891;-48
2023/06/26 02:27:44;;;;;;;2.40;2.05;;;;;;;26.96;47.18;98685.06;2062619;28;20052;-48
2023/06/26 02:28:47;;;;;;;2.90;1.95;;;;;;;26.99;47.32;98683.72;2060856;28;20096;-48
2023/06/26 02:29:48;;;;;;;2.20;1.95;;;;;;;27.00;47.23;98682.66;2061510;28;20065;-47
2023/06/26 02:30:50;;;;;;;2.47;1.83;;;;;;;27.03;47.48;98685.69;2055363;28;20168;-48
2023/06/26 02:31:50;;;;;;;1.75;1.52;;;;;;;27.01;47.36;98681.59;2058304;28;20084;-50
2023/06/26 02:32:52;;;;;;;2.13;1.92;;;;;;;27.04;47.54;98689.22;2052585;28;20045;-48
2023/06/26 02:33:53;;;;;;;3.13;1.77;;;;;;;27.03;47.12;98684.88;2058357;28;20094;-47
2023/06/26 02:34:55;;;;;;;1.98;1.73;;;;;;;26.98;47.67;98693.00;2059820;28;20245;-49
2023/06/26 02:35:55;;;;;;;6.80;1.92;;;;;;;26.99;47.71;98690.00;2062370;28;20054;-48
2023/06/26 02:36:58;;;;;;;2.72;1.75;;;;;;;26.95;47.56;98680.72;2059071;28;20062;-49
2023/06/26 02:37:59;;;;;;;2.90;2.25;;;;;;;26.98;47.34;98684.81;2059174;28;20058;-47
2023/06/26 02:39:01;;;;;;;2.30;1.88;;;;;;;27.00;47.60;98680.78;2061308;28;20050;-48
2023/06/26 02:40:01;;;;;;;2.30;1.70;;;;;;;26.99;47.24;98681.81;2060119;28;20078;-47
2023/06/26 02:41:03;;;;;;;2.95;1.98;;;;;;;26.99;47.27;98678.28;2059675;28;20050;-48
2023/06/26 02:42:05;;;;;;;2.65;1.95;;;;;;;26.98;47.19;98684.81;2063027;28;21039;-48
2023/06/26 02:43:07;;;;;;;2.33;1.80;;;;;;;27.02;47.23;98686.75;2059814;28;20046;-48
2023/06/26 02:44:11;;;;;;;4.40;2.00;;;;;;;27.01;47.26;98687.03;2052984;28;20050;-49
2023/06/26 02:45:13;;;;;;;3.97;1.92;;;;;;;27.01;47.36;98682.41;2058294;28;20046;-49
2023/06/26 02:46:14;;;;;;;2.25;1.92;;;;;;;26.96;47.44;98677.72;2060335;28;20073;-54
2023/06/26 02:47:15;;;;;;;2.92;1.77;;;;;;;27.02;47.23;98684.03;2058632;28;20058;-52
2023/06/26 02:48:16;;;;;;;2.90;1.85;;;;;;;27.01;47.45;98682.41;2058170;28;20504;-53
2023/06/26 02:49:18;;;;;;;1.83;1.42;;;;;;;27.02;46.98;98688.66;2060617;28;20050;-52
2023/06/26 02:50:19;;;;;;;2.53;1.88;;;;;;;27.00;47.31;98685.41;2056175;28;20060;-50
2023/06/26 02:51:21;;;;;;;2.22;1.85;;;;;;;26.95;47.43;98678.81;2048870;28;20208;-48
2023/06/26 02:52:21;;;;;;;2.28;1.80;;;;;;;26.96;47.71;98685.88;2060656;28;20085;-54
2023/06/26 02:53:24;;;;;;;2.50;2.25;;;;;;;26.92;47.44;98682.03;2058966;28;20135;-52
2023/06/26 02:54:24;;;;;;;1.90;1.67;;;;;;;26.92;47.56;98679.31;2055620;28;20060;-51
2023/06/26 02:55:26;;;;;;;2.45;1.40;;;;;;;26.91;47.86;98676.84;2062733;28;20141;-48
2023/06/26 02:56:28;;;;;;;2.60;1.92;;;;;;;26.92;47.83;98678.50;2058721;28;20074;-48
2023/06/26 02:57:30;;;;;;;6.22;1.95;;;;;;;26.91;47.46;98672.25;2062369;28;20054;-49
2023/06/26 02:58:31;;;;;;;2.38;1.80;;;;;;;26.93;47.49;98686.41;2060365;28;20164;-51
2023/06/26 02:59:34;;;;;;;2.97;2.22;;;;;;;26.91;47.84;98677.69;2062135;28;20046;-50
2023/06/26 03:00:35;;;;;;;2.60;1.67;;;;;;;26.94;48.10;98681.78;2061439;28;20042;-51
2023/06/26 03:01:37;;;;;;;3.58;2.45;;;;;;;26.92;48.15;98681.22;2058822;28;20046;-52
2023/06/26 03:02:38;;;;;;;4.22;1.75;;;;;;;26.91;48.03;98685.00;2057210;28;20038;-46
2023/06/26 03:03:41;;;;;;;3.88;2.20;;;;;;;26.90;47.91;98681.47;2060027;28;20052;-51
2023/06/26 03:04:43;;;;;;;2.17;1.70;;;;;;;26.92;47.87;98686.69;2060267;28;20049;-52
2023/06/26 03:05:44;;;;;;;2.10;1.90;;;;;;;26.92;47.82;98687.50;2059105;28;20061;-47
2023/06/26 03:06:45;;;;;;;2.83;1.90;;;;;;;26.94;48.10;98682.63;2060930;28;20084;-50
2023/06/26 03:07:47;;;;;;;2.92;1.98;;;;;;;26.96;47.65;98685.06;2053530;28;20045;-49
2023/06/26 03:08:48;;;;;;;2.35;1.90;;;;;;;26.96;47.99;98685.88;2058374;28;20049;-56
2023/06/26 03:09:50;;;;;;;2.10;1.90;;;;;;;26.92;47.80;98692.94;2059806;28;20081;-49
2023/06/26 03:10:51;;;;;;;4.90;2.00;;;;;;;26.91;48.19;98687.72;2058706;28;20507;-52
2023/06/26 03:11:55;;;;;;;2.47;1.77;;;;;;;26.91;48.01;98687.72;2059949;28;20140;-51
2023/06/26 03:12:56;;;;;;;2.00;1.70;;;;;;;26.90;48.41;98692.34;2060803;28;20404;-48
2023/06/26 03:13:57;;;;;;;2.95;1.58;;;;;;;26.91;48.35;98693.19;2059684;28;20133;-52
2023/06/26 03:15:01;;;;;;;1.98;1.77;;;;;;;26.90;48.33;98686.09;2058864;28;20050;-51
2023/06/26 03:16:02;;;;;;;4.47;2.15;;;;;;;26.88;47.77;98682.81;2059652;28;20057;-54
2023/06/26 03:17:05;;;;;;;3.15;2.28;;;;;;;26.89;48.18;98682.56;2056858;28;20050;-54
2023/06/26 03:18:06;;;;;;;2.20;1.58;;;;;;;26.89;48.38;98688.00;2057801;28;20096;-49
2023/06/26 03:19:08;;;;;;;1.77;1.40;;;;;;;26.87;48.02;98687.44;2059009;28;20817;-52
2023/06/26 03:20:10;;;;;;;1.40;1.30;;;;;;;26.90;47.88;98678.75;2057673;28;20132;-54
2023/06/26 03:21:12;;;;;;;2.65;1.85;;;;;;;26.93;48.10;98680.97;2058682;28;20572;-52
2023/06/26 03:22:13;;;;;;;2.83;2.30;;;;;;;26.91;47.61;98683.13;2060475;28;20120;-53
2023/06/26 03:23:15;;;;;;;3.15;2.33;;;;;;;26.89;47.81;98685.28;2060298;28;20054;-47
2023/06/26 03:24:15;;;;;;;3.10;2.13;;;;;;;26.84;47.91;98684.41;2059998;28;20061;-54
2023/06/26 03:25:17;;;;;;;2.25;2.00;;;;;;;26.85;47.81;98683.31;2053888;28;20144;-54
2023/06/26 03:26:18;;;;;;;2.25;2.05;;;;;;;26.86;47.91;98679.53;2059486;28;20081;-51
2023/06/26 03:27:20;;;;;;;2.80;2.35;;;;;;;26.88;47.70;98680.09;2060273;28;20054;-48
2023/06/26 03:28:21;;;;;;;2.83;1.67;;;;;;;26.87;48.06;98679.28;2058697;28;20050;-54
2023/06/26 03:29:22;;;;;;;4.47;2.08;;;;;;;26.87;47.69;98678.44;2058954;28;20072;-48
2023/06/26 03:30:25;;;;;;;3.70;1.80;;;;;;;26.88;48.04;98680.91;2058902;28;20053;-50
2023/06/26 03:31:26;;;;;;;3.25;1.95;;;;;;;26.88;48.12;98677.38;2060916;28;20520;-54
2023/06/26 03:32:27;;;;;;;2.58;1.80;;;;;;;26.87;47.99;98687.44;2060286;28;21706;-54
2023/06/26 03:33:29;;;;;;;2.80;2.08;;;;;;;26.80;48.20;98678.66;2058336;28;20149;-49
2023/06/26 03:34:30;;;;;;;2.47;2.05;;;;;;;26.83;48.22;98683.59;2063260;28;20523;-48
2023/06/26 03:35:32;;;;;;;2.60;2.17;;;;;;;26.87;48.16;98692.06;2062969;28;20085;-48
2023/06/26 03:36:35;;;;;;;1.92;1.73;;;;;;;26.81;47.95;98683.03;2063207;28;20057;-48
2023/06/26 03:37:36;;;;;;;3.15;2.33;;;;;;;26.72;48.01;98681.84;2061109;28;20087;-47
2023/06/26 03:38:38;;;;;;;4.47;2.05;;;;;;;26.79;48.28;98687.88;2059152;28;20109;-48
2023/06/26 03:39:38;;;;;;;2.83;1.88;;;;;;;26.77;48.20;98690.03;2061216;28;20050;-53
2023/06/26 03:40:40;;;;;;;2.35;1.73;;;;;;;26.77;48.25;98690.03;2062236;28;20145;-48
2023/06/26 03:41:41;;;;;;;4.43;1.73;;;;;;;26.74;48.42;98688.69;2061300;28;20407;-49
2023/06/26 03:42:43;;;;;;;1.98;1.77;;;;;;;26.76;48.16;98688.41;2064880;28;20049;-47
2023/06/26 03:43:44;;;;;;;3.58;2.60;;;;;;;26.77;48.16;98692.75;2053019;28;20057;-51
2023/06/26 03:44:46;;;;;;;2.42;1.77;;;;;;;26.78;47.90;98688.16;2062591;28;20078;-48
2023/06/26 03:45:49;;;;;;;4.25;2.05;;;;;;;26.73;48.35;98697.91;2065094;28;20129;-50
2023/06/26 03:46:50;;;;;;;2.65;2.35;;;;;;;26.72;48.19;98701.72;2053594;28;20077;-48
2023/06/26 03:47:51;;;;;;;2.53;2.15;;;;;;;26.75;48.35;98689.50;2062400;28;20077;-49
2023/06/26 03:48:53;;;;;;;2.55;2.20;;;;;;;26.77;48.46;98695.47;2060583;28;20054;-48
2023/06/26 03:49:54;;;;;;;3.28;2.03;;;;;;;26.77;48.16;98703.66;2060295;28;20081;-49
2023/06/26 03:50:56;;;;;;;2.78;2.00;;;;;;;26.81;48.46;98691.19;2063532;28;20058;-49
2023/06/26 03:51:57;;;;;;;3.75;2.15;;;;;;;26.82;48.33;98692.00;2062965;28;20080;-48
2023/06/26 03:52:59;;;;;;;2.40;1.75;;;;;;;26.81;48.00;98693.91;2063516;28;20050;-47
2023/06/26 03:53:59;;;;;;;2.45;1.80;;;;;;;26.80;48.20;98689.56;2064259;28;20424;-50
2023/06/26 03:55:02;;;;;;;4.10;1.92;;;;;;;26.82;47.97;98700.16;2061560;28;20057;-47
2023/06/26 03:56:03;;;;;;;3.47;2.15;;;;;;;26.79;48.19;98687.88;2060510;28;20137;-48
2023/06/26 03:57:06;;;;;;;3.60;2.20;;;;;;;26.78;47.59;98697.16;2061949;28;20275;-49
2023/06/26 03:58:06;;;;;;;2.28;2.08;;;;;;;26.80;47.72;98691.44;2062580;28;20046;-47
2023/06/26 03:59:08;;;;;;;2.90;2.25;;;;;;;26.79;47.54;98685.16;2059746;28;20049;-48
2023/06/26 04:00:12;;;;;;;3.30;2.35;;;;;;;26.78;47.61;98688.97;2062795;28;20102;-48
2023/06/26 04:01:15;;;;;;;3.10;2.35;;;;;;;26.78;47.98;98683.53;2060970;28;20052;-49
2023/06/26 04:02:16;;;;;;;3.55;1.83;;;;;;;26.80;47.63;98689.56;2063577;28;20061;-48
2023/06/26 04:03:18;;;;;;;2.85;2.00;;;;;;;26.79;47.90;98696.06;2061208;28;20058;-48
2023/06/26 04:04:19;;;;;;;3.25;1.95;;;;;;;26.81;47.38;98693.09;2058385;28;20340;-51
2023/06/26 04:05:21;;;;;;;5.10;2.38;;;;;;;26.79;47.98;98689.78;2061074;28;20050;-48
2023/06/26 04:06:22;;;;;;;4.93;2.45;;;;;;;26.76;47.78;98703.91;2062919;28;20058;-48
2023/06/26 04:07:24;;;;;;;2.00;1.77;;;;;;;26.75;47.93;98694.94;2062011;28;20046;-51
2023/06/26 04:08:26;;;;;;;2.78;1.90;;;;;;;26.76;48.12;98702.00;2060823;28;20042;-50
2023/06/26 04:09:28;;;;;;;2.72;2.20;;;;;;;26.77;48.13;98702.81;2063134;28;20644;-47
2023/06/26 04:10:28;;;;;;;2.65;1.70;;;;;;;26.78;47.96;98690.88;2063719;28;20042;-48
2023/06/26 04:11:31;;;;;;;2.55;1.90;;;;;;;26.76;48.14;98696.56;2061055;28;20052;-54
2023/06/26 04:12:31;;;;;;;3.00;2.10;;;;;;;26.77;47.98;98691.94;2057757;28;20054;-50
2023/06/26 04:13:33;;;;;;;4.63;2.47;;;;;;;26.77;48.23;98694.66;2061952;28;20107;-52
2023/06/26 04:14:34;;;;;;;2.17;1.98;;;;;;;26.73;48.16;98697.91;2052233;28;20081;-54
2023/06/26 04:15:36;;;;;;;5.20;2.30;;;;;;;26.76;48.30;98695.75;2064320;28;20049;-49
2023/06/26 04:16:38;;;;;;;4.35;2.00;;;;;;;26.77;47.88;98691.94;2060959;28;20077;-49
2023/06/26 04:17:40;;;;;;;2.20;1.77;;;;;;;26.76;48.03;98696.56;2063099;28;20084;-51
2023/06/26 04:18:40;;;;;;;2.35;2.00;;;;;;;26.76;47.94;98696.56;2061341;28;20050;-52
2023/06/26 04:19:42;;;;;;;3.05;1.98;;;;;;;26.76;47.94;98693.84;2054530;28;20689;-54
2023/06/26 04:21:04;;;;;;;1.67;1.58;;;;;;;26.69;48.56;98685.06;2061484;28;20080;-52
2023/06/26 04:22:06;;;;;;;2.50;2.13;;;;;;;26.70;48.49;98694.88;2063964;28;20054;-51
2023/06/26 04:23:07;;;;;;;1.90;1.70;;;;;;;26.69;48.16;98691.34;2059611;28;20046;-53
2023/06/26 04:24:09;;;;;;;2.22;2.03;;;;;;;26.68;48.05;98695.13;2062367;28;20878;-54
2023/06/26 04:25:11;;;;;;;3.90;1.92;;;;;;;26.69;48.33;98691.34;2060309;28;20104;-54
2023/06/26 04:26:14;;;;;;;3.63;2.05;;;;;;;26.70;48.33;98684.81;2062685;28;20054;-50
2023/06/26 04:27:15;;;;;;;2.95;1.88;;;;;;;26.67;48.50;98693.50;2065256;28;20052;-53
2023/06/26 04:28:17;;;;;;;2.13;1.92;;;;;;;26.66;48.38;98697.28;2061797;28;20137;-54
2023/06/26 04:29:18;;;;;;;4.00;1.92;;;;;;;26.70;48.03;98694.88;2062384;28;20046;-53
2023/06/26 04:30:19;;;;;;;3.38;1.83;;;;;;;26.68;48.24;98702.47;2062847;28;20050;-48
2023/06/26 04:31:21;;;;;;;3.92;2.10;;;;;;;26.62;48.37;98703.50;2061330;28;20052;-51
2023/06/26 04:32:25;;;;;;;3.17;2.30;;;;;;;26.59;48.49;98698.56;2059183;28;20532;-52
2023/06/26 04:33:26;;;;;;;2.97;2.00;;;;;;;26.54;48.58;98703.94;2061034;28;20498;-51
2023/06/26 04:34:32;;;;;;;2.50;2.13;;;;;;;26.48;48.24;98703.84;2059687;28;22960;-52
2023/06/26 04:35:36;;;;;;;5.35;2.10;;;;;;;26.48;48.31;98703.84;2062347;28;20081;-48
2023/06/26 04:36:38;;;;;;;2.53;2.00;;;;;;;26.51;48.43;98702.53;2064285;28;20524;-47
2023/06/26 04:37:40;;;;;;;6.10;2.03;;;;;;;26.49;48.49;98702.78;2062724;28;20057;-47
2023/06/26 04:38:41;;;;;;;3.78;2.10;;;;;;;26.50;48.46;98696.28;2061958;28;20134;-54
2023/06/26 04:39:42;;;;;;;3.45;2.10;;;;;;;26.51;48.46;98700.63;2055197;28;20058;-51
2023/06/26 04:40:44;;;;;;;3.80;2.85;;;;;;;26.52;48.70;98691.41;2060718;28;20137;-50
2023/06/26 04:41:45;;;;;;;4.05;2.10;;;;;;;26.50;48.41;98701.72;2061616;28;20050;-51
2023/06/26 04:42:47;;;;;;;3.10;2.25;;;;;;;26.47;48.49;98694.03;2061983;28;20630;-51
2023/06/26 04:43:48;;;;;;;3.80;2.60;;;;;;;26.50;48.58;98696.28;2060276;28;20424;-52
2023/06/26 04:44:50;;;;;;;3.67;2.25;;;;;;;26.49;48.79;98691.91;2061815;28;20046;-51
2023/06/26 04:45:51;;;;;;;3.63;2.60;;;;;;;26.48;48.79;98692.97;2061992;28;20047;-51
2023/06/26 04:46:53;;;;;;;2.67;1.55;;;;;;;26.50;48.45;98695.44;2061678;28;20054;-51
2023/06/26 04:47:56;;;;;;;2.53;2.25;;;;;;;26.50;48.58;98696.28;2054356;28;20107;-52
2023/06/26 04:48:58;;;;;;;2.90;2.20;;;;;;;26.49;48.41;98694.63;2060930;28;20054;-52
2023/06/26 04:49:59;;;;;;;4.72;2.85;;;;;;;26.48;48.46;98694.88;2059973;28;20485;-49
2023/06/26 04:51:00;;;;;;;4.88;2.10;;;;;;;26.52;48.74;98696.00;2061206;28;20047;-52
2023/06/26 04:52:01;;;;;;;1.83;1.67;;;;;;;26.57;48.62;98701.53;2063386;28;20672;-50
2023/06/26 04:53:03;;;;;;;3.22;2.80;;;;;;;26.57;48.34;98700.69;2060979;28;20046;-51
2023/06/26 04:54:04;;;;;;;1.92;1.58;;;;;;;26.59;48.11;98701.28;2059981;28;20046;-47